Time;durP1;ratioP1;P1;durP2;ratioP2;P2;SDS_P1;SDS_P2;PMS_P1;PMS_P2;Temp;Humidity;BMP_temperature;BMP_pressure;BME280_temperature;BME280_humidity;BME280_pressure;Samples;Min_cycle;Max_cycle;Signal;HPM_P1;HPM_P2
2024/02/14 00:02:30;;;;;;;8.82;6.03;;;6.50;98.70;;;;;;5091358;28;20523;-68
2024/02/14 00:05:17;;;;;;;9.18;6.20;;;6.50;98.80;;;;;;5094348;28;20035;-69
2024/02/14 00:08:03;;;;;;;8.77;6.35;;;6.50;99.00;;;;;;5095435;28;20039;-68
2024/02/14 00:10:49;;;;;;;10.88;6.35;;;6.50;98.80;;;;;;5100001;28;20488;-68
2024/02/14 00:13:35;;;;;;;8.00;6.38;;;6.50;98.80;;;;;;5094598;28;20048;-68
2024/02/14 00:16:21;;;;;;;10.02;6.28;;;6.50;98.90;;;;;;5097525;28;20051;-68
2024/02/14 00:19:07;;;;;;;9.13;5.78;;;6.50;98.90;;;;;;5094611;28;20059;-68
2024/02/14 00:21:53;;;;;;;9.65;6.25;;;6.50;98.90;;;;;;5099445;28;20038;-68
2024/02/14 00:24:39;;;;;;;9.40;6.53;;;6.50;98.90;;;;;;5098841;28;20043;-68
2024/02/14 00:27:26;;;;;;;8.27;6.15;;;6.50;98.90;;;;;;5091374;28;20115;-69
2024/02/14 00:30:12;;;;;;;10.77;6.28;;;6.40;98.90;;;;;;5095554;28;20086;-68
2024/02/14 00:32:58;;;;;;;9.65;6.40;;;6.40;98.90;;;;;;5089334;28;20091;-68
2024/02/14 00:35:44;;;;;;;9.05;6.00;;;6.40;98.90;;;;;;5097502;28;20044;-69
2024/02/14 00:38:30;;;;;;;10.93;6.18;;;6.40;98.90;;;;;;5093329;28;20032;-69
2024/02/14 00:41:16;;;;;;;9.13;5.82;;;6.40;98.90;;;;;;5100338;28;20100;-69
2024/02/14 00:44:05;;;;;;;10.60;7.20;;;6.30;98.90;;;;;;5101660;28;20381;-69
2024/02/14 00:46:59;;;;;;;9.15;6.68;;;6.30;99.00;;;;;;5094104;28;20052;-70
2024/02/14 00:49:45;;;;;;;9.60;6.05;;;6.30;99.00;;;;;;5097384;28;20488;-71
2024/02/14 00:52:31;;;;;;;11.07;6.18;;;6.30;99.10;;;;;;5104548;28;20491;-70
2024/02/14 00:55:17;;;;;;;10.07;6.22;;;6.30;99.30;;;;;;5101719;28;20032;-70
2024/02/14 00:58:03;;;;;;;7.88;6.03;;;6.30;99.10;;;;;;5100693;28;20035;-70
2024/02/14 01:00:49;;;;;;;8.15;6.03;;;6.30;99.20;;;;;;5098237;28;20040;-70
2024/02/14 01:03:35;;;;;;;7.88;5.10;;;6.30;99.20;;;;;;5092597;28;20090;-69
2024/02/14 01:06:21;;;;;;;10.07;5.45;;;6.30;99.20;;;;;;5100684;28;20365;-70
2024/02/14 01:09:08;;;;;;;7.53;5.30;;;6.30;99.20;;;;;;5100415;28;20040;-69
2024/02/14 01:11:54;;;;;;;7.68;5.80;;;6.30;99.20;;;;;;5099713;28;20032;-70
2024/02/14 01:14:40;;;;;;;9.05;5.90;;;6.30;99.30;;;;;;5098910;28;20455;-69
2024/02/14 01:17:26;;;;;;;8.30;5.88;;;6.20;99.20;;;;;;5096296;28;20132;-68
2024/02/14 01:20:12;;;;;;;8.65;5.68;;;6.30;99.30;;;;;;5102726;28;20031;-69
2024/02/14 01:22:59;;;;;;;8.93;6.28;;;6.30;99.30;;;;;;5094099;28;20565;-68
2024/02/14 01:25:45;;;;;;;8.88;5.50;;;6.30;99.30;;;;;;5090508;28;20185;-69
2024/02/14 01:28:30;;;;;;;10.23;6.40;;;6.30;99.30;;;;;;5096494;28;20078;-68
2024/02/14 01:31:16;;;;;;;9.70;6.47;;;6.30;99.30;;;;;;5100433;28;20087;-69
2024/02/14 01:34:02;;;;;;;10.63;5.95;;;6.30;99.30;;;;;;5099525;28;20034;-70
2024/02/14 01:36:48;;;;;;;12.85;6.10;;;6.20;99.30;;;;;;5098463;28;20055;-68
2024/02/14 01:39:34;;;;;;;9.13;6.32;;;6.20;99.30;;;;;;5093457;28;20119;-69
2024/02/14 01:42:20;;;;;;;9.52;6.90;;;6.30;99.40;;;;;;5105518;28;20040;-68
2024/02/14 01:45:06;;;;;;;8.38;5.88;;;6.20;99.40;;;;;;5099063;28;20044;-69
2024/02/14 01:47:53;;;;;;;11.05;6.97;;;6.20;99.40;;;;;;5095681;28;20047;-68
2024/02/14 01:50:40;;;;;;;8.98;5.85;;;6.20;99.40;;;;;;5099126;28;20109;-68
2024/02/14 01:53:29;;;;;;;10.00;5.78;;;6.20;99.50;;;;;;5100499;28;20488;-68
2024/02/14 01:56:16;;;;;;;8.63;6.05;;;6.20;99.50;;;;;;5099786;28;20059;-68
2024/02/14 01:59:02;;;;;;;8.52;5.18;;;6.20;99.50;;;;;;5098636;28;20040;-69
2024/02/14 02:01:48;;;;;;;8.38;5.75;;;6.20;99.60;;;;;;5099906;28;20040;-68
2024/02/14 02:04:34;;;;;;;7.45;4.78;;;6.20;99.60;;;;;;5106763;28;20043;-68
2024/02/14 02:07:20;;;;;;;7.13;4.97;;;6.20;99.80;;;;;;5095085;28;20044;-69
2024/02/14 02:10:07;;;;;;;9.10;5.53;;;6.20;99.60;;;;;;5096972;28;20108;-69
2024/02/14 02:12:59;;;;;;;7.97;4.68;;;6.20;99.60;;;;;;5094071;28;20118;-68
2024/02/14 02:15:45;;;;;;;5.47;4.32;;;6.20;99.70;;;;;;5103868;28;20503;-69
2024/02/14 02:18:31;;;;;;;7.55;5.50;;;6.20;99.70;;;;;;5098886;28;20077;-69
2024/02/14 02:21:23;;;;;;;7.57;4.78;;;6.30;99.70;;;;;;5095252;28;20105;-69
2024/02/14 02:24:08;;;;;;;7.90;5.15;;;6.30;99.70;;;;;;5093336;28;20047;-69
2024/02/14 02:26:56;;;;;;;6.68;4.85;;;6.30;99.70;;;;;;5093419;28;20040;-68
2024/02/14 02:29:42;;;;;;;12.40;4.55;;;6.30;99.70;;;;;;5092266;28;20055;-68
2024/02/14 02:32:28;;;;;;;7.80;5.65;;;6.30;99.70;;;;;;5101544;28;20044;-69
2024/02/14 02:35:14;;;;;;;7.05;4.78;;;6.30;99.70;;;;;;5097782;28;20459;-68
2024/02/14 02:38:00;;;;;;;8.63;5.22;;;6.30;99.80;;;;;;5092268;28;20047;-69
2024/02/14 02:40:46;;;;;;;7.22;4.97;;;6.30;99.80;;;;;;5101316;28;20036;-69
2024/02/14 02:43:33;;;;;;;6.55;4.57;;;6.20;99.70;;;;;;5095723;28;20088;-68
2024/02/14 02:46:19;;;;;;;5.70;3.97;;;6.30;99.70;;;;;;5103653;28;20126;-68
2024/02/14 02:49:05;;;;;;;6.68;4.93;;;6.20;99.70;;;;;;5101378;28;20042;-68
2024/02/14 02:51:52;;;;;;;8.43;4.90;;;6.20;99.70;;;;;;5096379;28;20047;-68
2024/02/14 02:54:43;;;;;;;6.43;4.55;;;6.20;99.70;;;;;;5092599;28;20036;-68
2024/02/14 02:57:31;;;;;;;6.65;4.82;;;6.20;99.70;;;;;;5094320;28;20063;-69
2024/02/14 03:00:21;;;;;;;6.68;4.47;;;6.20;99.70;;;;;;5090428;28;20067;-69
2024/02/14 03:03:10;;;;;;;8.55;4.97;;;6.20;99.70;;;;;;5089866;28;20480;-69
2024/02/14 03:05:56;;;;;;;5.50;4.47;;;6.10;99.70;;;;;;5098652;28;20652;-69
2024/02/14 03:08:43;;;;;;;6.13;4.80;;;6.10;99.70;;;;;;5092483;28;20044;-68
2024/02/14 03:11:29;;;;;;;6.18;4.30;;;6.10;99.80;;;;;;5092026;28;20059;-68
2024/02/14 03:14:15;;;;;;;7.07;5.28;;;6.10;99.80;;;;;;5100082;28;20044;-68
2024/02/14 03:17:01;;;;;;;6.28;4.25;;;6.20;99.90;;;;;;5097703;28;20400;-68
2024/02/14 03:19:48;;;;;;;5.80;4.18;;;6.10;99.90;;;;;;5097430;28;20044;-68
2024/02/14 03:22:34;;;;;;;6.82;4.80;;;6.10;99.90;;;;;;5089384;28;20044;-68
2024/02/14 03:25:21;;;;;;;6.13;4.70;;;6.10;99.90;;;;;;5090508;28;20048;-68
2024/02/14 03:28:08;;;;;;;10.50;5.35;;;6.10;99.90;;;;;;5099319;28;20481;-69
2024/02/14 03:30:54;;;;;;;9.07;4.75;;;6.10;99.90;;;;;;5102995;28;20056;-68
2024/02/14 03:33:40;;;;;;;5.75;4.40;;;6.10;99.90;;;;;;5100430;28;20036;-68
2024/02/14 03:36:30;;;;;;;7.80;4.70;;;6.10;99.90;;;;;;5090341;28;20055;-68
2024/02/14 03:39:17;;;;;;;7.45;4.55;;;6.10;99.90;;;;;;5089490;28;20038;-69
2024/02/14 03:42:07;;;;;;;7.05;5.13;;;6.10;99.90;;;;;;5102713;28;20040;-69
2024/02/14 03:45:00;;;;;;;6.40;4.68;;;6.10;99.90;;;;;;5093297;28;20488;-69
2024/02/14 03:47:45;;;;;;;6.57;4.63;;;6.20;99.90;;;;;;5091651;28;20055;-69
2024/02/14 03:50:32;;;;;;;6.45;5.00;;;6.10;99.90;;;;;;5101538;28;20392;-69
2024/02/14 03:53:18;;;;;;;8.13;4.60;;;6.10;99.90;;;;;;5099541;28;20100;-70
2024/02/14 03:56:04;;;;;;;6.40;4.53;;;6.10;99.90;;;;;;5092413;28;20154;-70
2024/02/14 03:58:51;;;;;;;7.55;4.97;;;6.10;99.90;;;;;;5095868;28;20036;-69
2024/02/14 04:01:37;;;;;;;7.68;4.75;;;6.10;99.90;;;;;;5081473;28;20032;-69
2024/02/14 04:04:22;;;;;;;6.03;4.72;;;6.10;99.90;;;;;;5093268;28;20032;-69
2024/02/14 04:07:08;;;;;;;8.10;4.85;;;6.10;99.90;;;;;;5095827;28;20046;-69
2024/02/14 04:09:54;;;;;;;7.15;5.10;;;6.10;99.90;;;;;;5103341;28;20122;-70
2024/02/14 04:12:40;;;;;;;7.25;5.07;;;6.10;99.90;;;;;;5083265;28;20032;-69
2024/02/14 04:15:26;;;;;;;6.97;5.10;;;6.10;99.90;;;;;;5102894;28;20071;-69
2024/02/14 04:18:14;;;;;;;8.45;5.75;;;6.10;99.90;;;;;;5096907;28;20040;-69
2024/02/14 04:21:00;;;;;;;9.23;6.10;;;6.10;99.90;;;;;;5096704;28;20536;-69
2024/02/14 04:23:46;;;;;;;9.02;5.80;;;6.10;99.90;;;;;;5102438;28;20082;-69
2024/02/14 04:26:32;;;;;;;9.98;5.88;;;6.10;99.90;;;;;;5103784;28;20043;-69
2024/02/14 04:29:18;;;;;;;10.43;6.60;;;6.10;99.90;;;;;;5102654;28;20368;-69
2024/02/14 04:32:04;;;;;;;8.68;5.32;;;6.20;99.90;;;;;;5094361;28;20047;-69
2024/02/14 04:34:50;;;;;;;8.20;5.40;;;6.20;99.90;;;;;;5103519;28;20039;-68
2024/02/14 04:37:36;;;;;;;8.70;5.68;;;6.20;99.90;;;;;;5106786;28;20113;-68
2024/02/14 04:40:22;;;;;;;8.38;5.68;;;6.30;99.90;;;;;;5093849;28;20418;-68
2024/02/14 04:43:08;;;;;;;9.25;5.80;;;6.30;99.90;;;;;;5097860;28;20118;-69
2024/02/14 04:45:53;;;;;;;8.70;5.97;;;6.30;99.90;;;;;;5106982;28;20473;-68
2024/02/14 04:48:39;;;;;;;7.18;5.57;;;6.30;99.90;;;;;;5096403;28;20547;-69
2024/02/14 04:51:25;;;;;;;7.95;5.72;;;6.30;99.90;;;;;;5100848;28;20047;-69
2024/02/14 04:54:13;;;;;;;12.80;5.90;;;6.30;99.90;;;;;;5109018;28;20043;-69
2024/02/14 04:56:59;;;;;;;8.55;6.40;;;6.40;99.90;;;;;;5104305;28;20130;-69
2024/02/14 04:59:45;;;;;;;10.75;5.72;;;6.40;99.90;;;;;;5101420;28;20483;-69
2024/02/14 05:02:31;;;;;;;6.95;5.53;;;6.40;99.90;;;;;;5098357;28;20040;-69
2024/02/14 05:05:17;;;;;;;6.25;4.95;;;6.40;99.90;;;;;;5102013;28;20040;-69
2024/02/14 05:08:04;;;;;;;7.70;5.15;;;6.50;99.90;;;;;;5097221;28;20043;-68
2024/02/14 05:10:50;;;;;;;8.63;5.72;;;6.50;99.90;;;;;;5109358;28;20623;-69
2024/02/14 05:13:37;;;;;;;9.35;6.82;;;6.40;99.90;;;;;;5092842;28;20032;-68
2024/02/14 05:16:23;;;;;;;10.85;6.38;;;6.40;99.90;;;;;;5103862;28;20044;-68
2024/02/14 05:19:10;;;;;;;8.40;5.70;;;6.40;99.90;;;;;;5097374;28;20032;-68
2024/02/14 05:21:56;;;;;;;10.15;5.88;;;6.40;99.90;;;;;;5100563;28;20040;-68
2024/02/14 05:24:42;;;;;;;8.73;6.15;;;6.40;99.90;;;;;;5098603;28;20040;-68
2024/02/14 05:27:28;;;;;;;10.23;6.72;;;6.50;99.90;;;;;;5095647;28;20048;-68
2024/02/14 05:30:14;;;;;;;8.35;5.68;;;6.50;99.90;;;;;;5093050;28;20130;-69
2024/02/14 05:33:01;;;;;;;9.75;6.85;;;6.40;99.90;;;;;;5100813;28;20544;-69
2024/02/14 05:35:46;;;;;;;10.75;6.53;;;6.50;99.90;;;;;;5098679;28;20055;-68
2024/02/14 05:38:34;;;;;;;9.05;5.57;;;6.50;99.90;;;;;;5099479;28;20561;-68
2024/02/14 05:41:20;;;;;;;9.57;6.35;;;6.50;99.90;;;;;;5101252;28;20071;-68
2024/02/14 05:44:06;;;;;;;8.88;7.15;;;6.50;99.90;;;;;;5099591;28;20048;-69
2024/02/14 05:46:52;;;;;;;15.25;6.30;;;6.50;99.90;;;;;;5107558;28;20118;-68
2024/02/14 05:49:41;;;;;;;10.18;6.28;;;6.50;99.90;;;;;;5102423;28;20040;-69
2024/02/14 05:52:27;;;;;;;9.30;6.22;;;6.50;99.90;;;;;;5099654;28;20044;-69
2024/02/14 05:55:14;;;;;;;8.85;6.10;;;6.50;99.90;;;;;;5096327;28;20541;-70
2024/02/14 05:58:00;;;;;;;8.05;5.60;;;6.60;99.90;;;;;;5094828;28;20139;-69
2024/02/14 06:00:46;;;;;;;11.80;7.03;;;6.60;99.90;;;;;;5104752;28;20036;-70
2024/02/14 06:03:32;;;;;;;13.25;6.03;;;6.60;99.90;;;;;;5103437;28;20578;-68
2024/02/14 06:06:18;;;;;;;10.10;5.65;;;6.60;99.90;;;;;;5080949;28;20047;-69
2024/02/14 06:09:09;;;;;;;8.27;5.97;;;6.60;99.90;;;;;;5097765;28;20402;-69
2024/02/14 06:11:55;;;;;;;10.27;6.43;;;6.60;99.90;;;;;;5098135;28;20078;-69
2024/02/14 06:14:41;;;;;;;10.63;5.85;;;6.60;99.90;;;;;;5094392;28;20456;-69
2024/02/14 06:17:27;;;;;;;11.45;6.90;;;6.60;99.90;;;;;;5095002;28;20407;-69
2024/02/14 06:20:13;;;;;;;10.95;6.70;;;6.60;99.90;;;;;;5098208;28;20093;-68
2024/02/14 06:22:59;;;;;;;11.52;5.53;;;6.70;99.90;;;;;;5092287;28;20047;-69
2024/02/14 06:25:45;;;;;;;9.65;7.07;;;6.60;99.90;;;;;;5085277;28;20054;-69
2024/02/14 06:28:31;;;;;;;8.75;5.75;;;6.60;99.90;;;;;;5097412;28;20036;-68
2024/02/14 06:31:16;;;;;;;7.38;5.65;;;6.60;99.90;;;;;;5084947;28;20075;-69
2024/02/14 06:34:02;;;;;;;6.72;5.13;;;6.60;99.90;;;;;;5096733;28;20043;-68
2024/02/14 06:36:48;;;;;;;7.75;5.32;;;6.60;99.90;;;;;;5092577;28;20128;-68
2024/02/14 06:39:34;;;;;;;11.57;5.50;;;6.70;99.90;;;;;;5094001;28;20063;-69
2024/02/14 06:42:20;;;;;;;8.25;6.00;;;6.70;99.90;;;;;;5098047;28;20039;-69
2024/02/14 06:45:06;;;;;;;9.70;5.85;;;6.70;99.90;;;;;;5098348;28;20039;-69
2024/02/14 06:47:52;;;;;;;8.63;6.07;;;6.70;99.90;;;;;;5100306;28;20055;-69
2024/02/14 06:50:38;;;;;;;7.88;4.88;;;6.70;99.90;;;;;;5092603;28;20411;-69
2024/02/14 06:53:24;;;;;;;7.85;5.22;;;6.70;99.90;;;;;;5093951;28;20479;-69
2024/02/14 06:56:10;;;;;;;11.80;6.35;;;6.80;99.90;;;;;;5100945;28;20047;-65
2024/02/14 06:58:59;;;;;;;7.70;5.18;;;6.80;99.90;;;;;;5099705;28;20067;-66
2024/02/14 07:01:45;;;;;;;6.95;5.13;;;6.80;99.90;;;;;;5092425;28;20043;-65
2024/02/14 07:04:31;;;;;;;9.20;4.85;;;6.90;99.90;;;;;;5091318;28;20119;-66
2024/02/14 07:07:17;;;;;;;10.00;5.45;;;6.90;99.90;;;;;;5093620;28;20075;-65
2024/02/14 07:10:06;;;;;;;7.22;5.30;;;6.90;99.90;;;;;;5096609;28;20448;-65
2024/02/14 07:12:52;;;;;;;7.13;5.35;;;6.90;99.90;;;;;;5098049;28;20044;-66
2024/02/14 07:15:38;;;;;;;10.80;6.10;;;7.00;99.90;;;;;;5102482;28;20047;-66
2024/02/14 07:18:23;;;;;;;9.38;4.78;;;7.00;99.90;;;;;;5094548;28;20042;-66
2024/02/14 07:21:10;;;;;;;8.85;4.45;;;7.10;99.90;;;;;;5096178;28;20040;-66
2024/02/14 07:23:55;;;;;;;11.52;5.63;;;7.10;99.90;;;;;;5103695;28;20399;-66
2024/02/14 07:26:43;;;;;;;7.57;4.78;;;7.10;99.90;;;;;;5094059;28;20032;-65
2024/02/14 07:29:29;;;;;;;7.20;4.75;;;7.20;99.90;;;;;;5096402;28;20454;-66
2024/02/14 07:32:17;;;;;;;7.15;5.05;;;7.20;99.90;;;;;;5093441;28;20051;-66
2024/02/14 07:35:04;;;;;;;8.65;4.93;;;7.20;99.90;;;;;;5101352;28;20047;-68
2024/02/14 07:37:50;;;;;;;8.00;4.70;;;7.30;99.90;;;;;;5092861;28;20048;-65
2024/02/14 07:40:36;;;;;;;6.97;5.07;;;7.30;99.90;;;;;;5104274;28;20096;-69
2024/02/14 07:43:22;;;;;;;9.80;4.95;;;7.40;99.90;;;;;;5098401;28;20105;-65
2024/02/14 07:46:08;;;;;;;7.43;4.50;;;7.40;99.90;;;;;;5096746;28;20495;-65
2024/02/14 07:48:54;;;;;;;18.55;5.80;;;7.50;99.90;;;;;;5101981;28;20052;-65
2024/02/14 07:51:41;;;;;;;8.15;5.10;;;7.50;99.90;;;;;;5091640;28;20059;-65
2024/02/14 07:54:27;;;;;;;6.68;4.55;;;7.60;99.90;;;;;;5104037;28;20132;-65
2024/02/14 07:57:12;;;;;;;23.83;5.75;;;7.60;99.90;;;;;;5090610;28;20036;-65
2024/02/14 07:59:58;;;;;;;7.38;5.07;;;7.70;99.90;;;;;;5088721;28;20043;-65
2024/02/14 08:02:44;;;;;;;8.50;5.00;;;7.70;99.90;;;;;;5096517;28;20036;-68
2024/02/14 08:05:30;;;;;;;9.75;5.13;;;7.80;99.90;;;;;;5106691;28;20047;-66
2024/02/14 08:08:16;;;;;;;7.53;5.05;;;7.80;99.90;;;;;;5095450;28;20395;-66
2024/02/14 08:11:02;;;;;;;13.80;6.75;;;7.80;99.90;;;;;;5100802;28;20506;-65
2024/02/14 08:13:48;;;;;;;11.00;5.18;;;7.90;99.90;;;;;;5104876;28;20538;-66
2024/02/14 08:16:35;;;;;;;11.52;5.80;;;8.00;99.90;;;;;;5092333;28;20119;-66
2024/02/14 08:19:21;;;;;;;7.05;5.00;;;7.90;99.90;;;;;;5082382;28;20031;-65
2024/02/14 08:22:07;;;;;;;8.38;4.78;;;8.00;99.90;;;;;;5092715;28;20082;-65
2024/02/14 08:24:53;;;;;;;7.18;4.57;;;8.00;99.90;;;;;;5096153;28;20095;-65
2024/02/14 08:27:39;;;;;;;10.00;5.18;;;8.10;99.90;;;;;;5098527;28;20529;-65
2024/02/14 08:30:27;;;;;;;11.90;4.95;;;8.10;99.90;;;;;;5083435;28;20052;-65
2024/02/14 08:33:13;;;;;;;8.80;5.22;;;8.10;99.90;;;;;;5094884;28;20048;-66
2024/02/14 08:36:00;;;;;;;6.43;4.72;;;8.20;99.90;;;;;;5095941;28;20043;-65
2024/02/14 08:38:45;;;;;;;8.85;4.70;;;8.20;99.90;;;;;;5091879;28;20032;-65
2024/02/14 08:41:31;;;;;;;8.32;4.72;;;8.20;99.90;;;;;;5103677;28;20128;-68
2024/02/14 08:44:18;;;;;;;7.97;4.90;;;8.20;99.90;;;;;;5094367;28;20032;-65
2024/02/14 08:47:04;;;;;;;7.35;4.68;;;8.30;99.90;;;;;;5095942;28;20036;-65
2024/02/14 08:49:50;;;;;;;7.70;4.75;;;8.30;99.90;;;;;;5096619;28;20039;-65
2024/02/14 08:52:37;;;;;;;7.55;4.80;;;8.30;99.90;;;;;;5096932;28;20036;-66
2024/02/14 08:55:23;;;;;;;6.97;5.07;;;8.40;99.90;;;;;;5098572;28;20078;-66
2024/02/14 08:58:09;;;;;;;10.15;5.38;;;8.40;99.90;;;;;;5100984;28;20040;-65
2024/02/14 09:00:55;;;;;;;7.90;4.75;;;8.40;99.90;;;;;;5099246;28;20158;-65
2024/02/14 09:03:48;;;;;;;9.43;4.43;;;8.50;99.90;;;;;;5103670;28;20096;-66
2024/02/14 09:06:34;;;;;;;7.70;4.72;;;8.60;99.90;;;;;;5098599;28;20050;-66
2024/02/14 09:09:20;;;;;;;7.82;4.18;;;8.60;99.90;;;;;;5099072;28;20267;-66
2024/02/14 09:12:07;;;;;;;8.82;3.88;;;8.70;99.90;;;;;;5083303;28;20048;-66
2024/02/14 09:14:53;;;;;;;5.65;3.67;;;8.70;99.90;;;;;;5105118;28;20032;-66
2024/02/14 09:17:40;;;;;;;7.45;3.60;;;8.80;99.90;;;;;;5103732;28;20040;-65
2024/02/14 09:20:26;;;;;;;6.97;3.60;;;8.80;99.90;;;;;;5096266;28;20036;-65
2024/02/14 09:23:20;;;;;;;7.15;3.75;;;8.80;99.90;;;;;;5098948;28;20428;-65
2024/02/14 09:26:06;;;;;;;5.45;3.30;;;8.80;99.90;;;;;;5098769;28;20118;-65
2024/02/14 09:28:52;;;;;;;6.97;3.55;;;8.90;99.90;;;;;;5098193;28;20572;-65
2024/02/14 09:31:38;;;;;;;6.28;3.85;;;8.90;99.90;;;;;;5095856;28;20048;-65
2024/02/14 09:34:25;;;;;;;5.68;3.75;;;9.00;99.90;;;;;;5101069;27;20081;-65
2024/02/14 09:37:11;;;;;;;5.22;3.53;;;9.00;99.90;;;;;;5098692;28;20059;-66
2024/02/14 09:39:57;;;;;;;5.60;3.20;;;9.00;99.90;;;;;;5096245;28;20516;-66
2024/02/14 09:42:49;;;;;;;5.97;3.03;;;9.00;99.90;;;;;;5090105;28;20322;-66
2024/02/14 09:45:36;;;;;;;6.68;3.78;;;9.10;99.90;;;;;;5090126;28;20044;-66
2024/02/14 09:48:23;;;;;;;6.68;3.35;;;9.10;99.90;;;;;;5094905;28;20101;-66
2024/02/14 09:51:10;;;;;;;6.15;3.60;;;9.20;99.90;;;;;;5108440;27;20062;-66
2024/02/14 09:53:57;;;;;;;4.47;3.05;;;9.20;99.90;;;;;;5090931;28;20404;-66
2024/02/14 09:56:53;;;;;;;5.72;3.00;;;9.30;99.90;;;;;;5108825;27;20047;-66
2024/02/14 09:59:39;;;;;;;;;;;9.30;99.90;;;;;;5100093;28;20042;-66
2024/02/14 10:02:25;;;;;;;3.50;3.00;;;9.30;99.90;;;;;;5099083;28;19914;-66
2024/02/14 10:05:11;;;;;;;9.95;3.45;;;9.30;99.90;;;;;;5104304;28;20082;-66
2024/02/14 10:07:57;;;;;;;6.93;3.50;;;9.30;99.90;;;;;;5096153;28;20038;-66
2024/02/14 10:10:44;;;;;;;4.57;3.08;;;9.30;99.90;;;;;;5102257;28;20491;-66
2024/02/14 10:13:31;;;;;;;7.57;3.05;;;9.40;99.90;;;;;;5098793;28;20039;-66
2024/02/14 10:16:18;;;;;;;5.15;2.67;;;9.40;99.90;;;;;;5094692;28;20069;-67
2024/02/14 10:19:07;;;;;;;4.72;2.80;;;9.50;99.90;;;;;;5090601;28;20074;-67
2024/02/14 10:21:57;;;;;;;7.53;2.90;;;9.50;99.90;;;;;;5092115;28;20503;-67
2024/02/14 10:24:45;;;;;;;5.05;3.30;;;9.50;99.90;;;;;;5089160;28;20050;-67
2024/02/14 10:27:31;;;;;;;6.55;3.22;;;9.60;99.90;;;;;;5092432;27;20097;-67
2024/02/14 10:30:17;;;;;;;7.50;2.85;;;9.60;99.90;;;;;;5105223;28;20036;-67
2024/02/14 10:33:04;;;;;;;4.47;3.13;;;9.70;99.90;;;;;;5098308;28;20093;-67
2024/02/14 10:35:52;;;;;;;5.70;3.30;;;9.70;99.90;;;;;;5096418;28;20131;-67
2024/02/14 10:38:40;;;;;;;5.85;3.95;;;9.80;99.90;;;;;;5103731;28;20040;-67
2024/02/14 10:41:31;;;;;;;5.20;3.20;;;9.80;99.90;;;;;;5106933;28;20054;-67
2024/02/14 10:44:18;;;;;;;4.63;2.88;;;9.80;99.90;;;;;;5111948;27;20035;-67
2024/02/14 10:47:10;;;;;;;5.88;3.00;;;9.80;99.90;;;;;;5091844;28;20204;-67
2024/02/14 10:50:02;;;;;;;6.25;3.40;;;9.90;99.90;;;;;;5086402;28;20396;-67
2024/02/14 10:52:49;;;;;;;5.03;3.25;;;9.90;99.90;;;;;;5093731;28;20056;-67
2024/02/14 10:55:35;;;;;;;5.28;2.97;;;9.90;99.90;;;;;;5094177;28;21101;-67
2024/02/14 10:58:24;;;;;;;6.22;3.10;;;9.90;99.90;;;;;;5099355;27;20048;-67
2024/02/14 11:01:11;;;;;;;6.82;3.20;;;9.90;99.90;;;;;;5092699;28;20040;-67
2024/02/14 11:03:59;;;;;;;6.78;3.05;;;10.00;99.90;;;;;;5090892;28;20032;-67
2024/02/14 11:06:52;;;;;;;4.35;3.13;;;10.00;99.90;;;;;;5110697;28;20027;-67
2024/02/14 11:09:40;;;;;;;6.30;3.30;;;10.00;99.90;;;;;;5078299;28;20118;-67
2024/02/14 11:12:26;;;;;;;6.20;3.70;;;10.10;99.90;;;;;;5091369;28;20417;-67
2024/02/14 11:15:24;;;;;;;4.18;2.75;;;10.20;99.90;;;;;;5099577;28;20486;-67
2024/02/14 11:18:10;;;;;;;6.80;3.08;;;10.30;99.90;;;;;;5078337;28;20040;-67
2024/02/14 11:20:57;;;;;;;5.85;3.15;;;10.40;99.90;;;;;;5090340;28;20040;-67
2024/02/14 11:23:54;;;;;;;7.25;3.75;;;10.50;99.90;;;;;;5093997;28;20476;-66
2024/02/14 11:26:54;;;;;;;5.95;3.08;;;10.60;99.90;;;;;;5100970;28;20039;-66
2024/02/14 11:29:51;;;;;;;5.35;3.40;;;10.60;99.90;;;;;;5102959;28;20055;-67
2024/02/14 11:32:39;;;;;;;7.57;4.45;;;10.70;99.90;;;;;;5097131;28;20055;-67
2024/02/14 11:35:25;;;;;;;5.57;3.10;;;10.70;99.90;;;;;;5098426;27;20126;-66
2024/02/14 11:38:11;;;;;;;5.22;3.33;;;10.70;99.90;;;;;;5107510;28;20067;-67
2024/02/14 11:40:57;;;;;;;4.88;2.78;;;10.80;99.90;;;;;;5102974;28;20035;-67
2024/02/14 11:43:51;;;;;;;5.80;3.10;;;10.70;99.90;;;;;;5082255;28;20365;-67
2024/02/14 11:46:37;;;;;;;4.45;3.00;;;10.70;99.90;;;;;;5101278;28;20051;-67
2024/02/14 11:49:23;;;;;;;6.47;4.13;;;10.70;99.90;;;;;;5095059;28;20492;-67
2024/02/14 11:52:13;;;;;;;6.93;2.80;;;10.80;99.90;;;;;;5096316;28;20122;-66
2024/02/14 11:54:59;;;;;;;5.10;3.22;;;10.70;99.90;;;;;;5101705;28;20043;-67
2024/02/14 11:57:48;;;;;;;5.38;3.22;;;10.70;99.90;;;;;;5095547;28;20548;-67
2024/02/14 12:00:35;;;;;;;7.68;3.38;;;10.70;99.90;;;;;;5102662;28;20043;-67
2024/02/14 12:03:24;;;;;;;4.68;3.13;;;10.70;99.90;;;;;;5094776;28;20040;-66
2024/02/14 12:06:10;;;;;;;5.75;3.63;;;10.80;99.90;;;;;;5090914;28;20052;-67
2024/02/14 12:08:56;;;;;;;11.02;3.83;;;10.80;99.90;;;;;;5098596;28;20035;-67
2024/02/14 12:11:43;;;;;;;5.55;3.60;;;10.80;99.90;;;;;;5096786;28;20062;-67
2024/02/14 12:14:29;;;;;;;6.60;3.90;;;10.90;99.90;;;;;;5106563;28;20055;-68
2024/02/14 12:17:18;;;;;;;5.78;3.80;;;10.90;99.90;;;;;;5091366;28;20044;-67
2024/02/14 12:20:12;;;;;;;5.97;3.92;;;10.90;99.90;;;;;;5095139;28;20071;-67
2024/02/14 12:22:59;;;;;;;6.10;3.92;;;10.90;99.90;;;;;;5088006;28;20110;-68
2024/02/14 12:25:49;;;;;;;6.75;3.70;;;10.90;99.90;;;;;;5094348;28;20043;-67
2024/02/14 12:28:37;;;;;;;8.88;4.60;;;10.90;99.90;;;;;;5101886;28;20383;-67
2024/02/14 12:31:23;;;;;;;7.90;4.53;;;10.90;99.90;;;;;;5097125;28;20043;-67
2024/02/14 12:34:11;;;;;;;6.65;4.07;;;11.00;99.90;;;;;;5093809;28;20043;-67
2024/02/14 12:36:57;;;;;;;6.05;3.65;;;11.00;99.90;;;;;;5096287;28;20048;-67
2024/02/14 12:39:42;;;;;;;5.15;3.72;;;11.00;99.90;;;;;;5091547;28;20067;-67
2024/02/14 12:42:28;;;;;;;5.80;3.17;;;11.10;99.90;;;;;;5093167;28;20055;-66
2024/02/14 12:45:14;;;;;;;5.57;3.10;;;11.10;99.90;;;;;;5096995;28;20034;-67
2024/02/14 12:48:01;;;;;;;4.78;3.47;;;11.10;99.90;;;;;;5106072;28;20044;-66
2024/02/14 12:50:49;;;;;;;3.72;2.88;;;11.10;99.90;;;;;;5111436;28;20128;-66
2024/02/14 12:53:35;;;;;;;6.13;3.50;;;11.10;99.90;;;;;;5095361;28;20055;-67
2024/02/14 12:56:20;;;;;;;6.65;3.53;;;11.20;99.90;;;;;;5098297;28;20040;-67
2024/02/14 12:59:07;;;;;;;4.78;3.22;;;11.20;99.90;;;;;;5104112;28;20051;-68
2024/02/14 13:01:53;;;;;;;5.68;3.55;;;11.20;99.90;;;;;;5099482;28;20048;-67
2024/02/14 13:04:40;;;;;;;6.03;4.30;;;11.30;99.90;;;;;;5098721;28;20049;-68
2024/02/14 13:07:26;;;;;;;5.10;2.58;;;11.30;99.90;;;;;;5103176;27;20043;-68
2024/02/14 13:10:12;;;;;;;4.22;2.78;;;11.30;99.90;;;;;;5098836;28;20521;-67
2024/02/14 13:12:58;;;;;;;4.80;3.25;;;11.30;99.90;;;;;;5096376;28;20036;-67
2024/02/14 13:15:44;;;;;;;5.22;3.10;;;11.40;99.90;;;;;;5099509;28;20499;-67
2024/02/14 13:18:30;;;;;;;4.65;3.38;;;11.40;99.90;;;;;;5099250;28;20050;-68
2024/02/14 13:21:17;;;;;;;5.45;3.00;;;11.40;99.90;;;;;;5079668;28;20476;-68
2024/02/14 13:24:03;;;;;;;5.85;3.90;;;11.40;99.90;;;;;;5092557;28;20119;-68
2024/02/14 13:26:49;;;;;;;8.30;3.97;;;11.40;99.90;;;;;;5100411;28;20035;-67
2024/02/14 13:29:35;;;;;;;5.57;3.20;;;11.40;99.90;;;;;;5098291;28;20040;-68
2024/02/14 13:32:21;;;;;;;6.28;3.50;;;11.40;99.90;;;;;;5087397;28;20075;-68
2024/02/14 13:35:08;;;;;;;6.15;3.58;;;11.40;99.90;;;;;;5095841;28;20031;-67
2024/02/14 13:37:56;;;;;;;5.55;3.50;;;11.40;99.90;;;;;;5099264;28;20062;-68
2024/02/14 13:40:42;;;;;;;9.43;4.20;;;11.50;99.90;;;;;;5104834;28;20051;-67
2024/02/14 13:43:27;;;;;;;6.20;3.97;;;11.40;99.90;;;;;;5106274;27;20047;-68
2024/02/14 13:46:14;;;;;;;7.30;3.38;;;11.40;99.90;;;;;;5095092;28;20163;-68
2024/02/14 13:49:00;;;;;;;7.03;3.38;;;11.50;99.90;;;;;;5098230;28;20042;-68
2024/02/14 13:51:46;;;;;;;3.80;2.67;;;11.50;99.90;;;;;;5094558;28;20047;-68
2024/02/14 13:54:32;;;;;;;5.57;3.30;;;11.50;99.90;;;;;;5104669;28;20032;-68
2024/02/14 13:57:18;;;;;;;7.18;2.95;;;11.50;99.90;;;;;;5093118;28;20067;-68
2024/02/14 14:00:09;;;;;;;4.90;3.10;;;11.50;99.90;;;;;;5078250;28;20034;-68
2024/02/14 14:02:55;;;;;;;4.70;2.95;;;11.50;99.90;;;;;;5123338;27;20036;-68
2024/02/14 14:05:41;;;;;;;4.70;2.92;;;11.50;99.90;;;;;;5097023;28;20499;-68
2024/02/14 14:08:27;;;;;;;4.25;2.78;;;11.50;99.90;;;;;;5105136;27;20483;-68
2024/02/14 14:11:13;;;;;;;4.20;2.75;;;11.50;99.90;;;;;;5110823;27;20492;-68
2024/02/14 14:14:00;;;;;;;4.43;2.85;;;11.50;99.90;;;;;;5093024;28;20450;-68
2024/02/14 14:16:45;;;;;;;4.55;2.63;;;11.50;99.90;;;;;;5115138;27;20484;-68
2024/02/14 14:19:31;;;;;;;4.20;2.88;;;11.50;99.90;;;;;;5100090;28;20091;-68
2024/02/14 14:22:17;;;;;;;5.72;3.03;;;11.60;99.90;;;;;;5096300;28;20438;-68
2024/02/14 14:25:07;;;;;;;6.43;3.58;;;11.60;99.90;;;;;;5104456;28;20032;-68
2024/02/14 14:27:54;;;;;;;5.82;3.03;;;11.60;99.90;;;;;;5092446;27;20044;-68
2024/02/14 14:30:40;;;;;;;6.00;3.78;;;11.60;99.90;;;;;;5097650;28;20161;-68
2024/02/14 14:33:26;;;;;;;6.20;4.10;;;11.60;99.90;;;;;;5101153;28;20044;-68
2024/02/14 14:36:12;;;;;;;8.85;4.88;;;11.60;99.90;;;;;;5117705;27;20082;-68